Terminal Aerodrome Forecast
Issued by NWS Twin Cities, MN

Home | Current Version | Previous Version | Graphics & Text | Print | Product List | Glossary On
Versions: 1 2 3 4 5 6 7 8 9 10 11 12 13 14 15 16 17 18 19 20 21 22 23 24 25
752
FTUS43 KMPX 211749
TAFMSP
TAF
KMSP 211749Z 2118/2224 15012KT P6SM FEW120
     FM220200 14008KT P6SM SCT050 BKN120
     FM220700 26006KT P6SM SCT120
     FM221000 33005KT P6SM SCT150
     FM221900 VRB04KT 5SM -SHRA BR OVC070=

USA.gov is the U.S. government's official web portal to all federal, state and local government web resources and services.